Time;durP1;ratioP1;P1;durP2;ratioP2;P2;SDS_P1;SDS_P2;PMS_P1;PMS_P2;Temp;Humidity;BMP_temperature;BMP_pressure;BME280_temperature;BME280_humidity;BME280_pressure;Samples;Min_cycle;Max_cycle;Signal;HPM_P1;HPM_P2
2022/07/29 00:01:23;;;;;;;2.55;0.70;;;9.90;99.90;;;;;;5053382;28;20159;-73
2022/07/29 00:03:51;;;;;;;4.00;1.35;;;9.90;99.90;;;;;;5053382;28;20036;-73
2022/07/29 00:06:18;;;;;;;2.55;1.10;;;10.00;99.90;;;;;;5053991;28;20359;-73
2022/07/29 00:08:46;;;;;;;1.85;0.80;;;10.00;99.90;;;;;;5057964;28;20020;-72
2022/07/29 00:11:13;;;;;;;3.40;0.75;;;10.00;99.90;;;;;;5055265;28;20017;-72
2022/07/29 00:13:40;;;;;;;1.55;0.90;;;10.10;99.90;;;;;;5053836;28;20493;-74
2022/07/29 00:16:08;;;;;;;2.42;1.00;;;10.20;99.90;;;;;;5052412;28;20025;-74
2022/07/29 00:18:35;;;;;;;1.90;0.82;;;10.20;99.90;;;;;;5056082;28;20040;-74
2022/07/29 00:21:02;;;;;;;1.50;0.55;;;10.30;99.90;;;;;;5055772;28;20028;-74
2022/07/29 00:23:30;;;;;;;2.33;0.95;;;10.40;99.90;;;;;;5054988;28;20482;-74
2022/07/29 00:25:57;;;;;;;3.78;1.08;;;10.40;99.90;;;;;;5054983;28;20060;-74
2022/07/29 00:28:24;;;;;;;2.47;0.93;;;10.50;99.90;;;;;;5055142;28;20566;-73
2022/07/29 00:30:52;;;;;;;1.95;0.85;;;10.70;99.90;;;;;;5057134;28;20040;-75
2022/07/29 00:33:19;;;;;;;3.35;1.10;;;10.80;99.90;;;;;;5054704;28;20033;-73
2022/07/29 00:35:47;;;;;;;8.52;1.40;;;10.80;99.90;;;;;;5054776;28;20017;-73
2022/07/29 00:38:16;;;;;;;3.38;0.93;;;10.90;99.90;;;;;;5054773;28;20039;-74
2022/07/29 00:40:44;;;;;;;8.00;1.58;;;11.00;99.90;;;;;;5057427;28;20025;-75
2022/07/29 00:43:13;;;;;;;2.15;0.98;;;11.00;99.90;;;;;;5053985;28;20021;-73
2022/07/29 00:45:41;;;;;;;7.25;1.60;;;10.90;99.90;;;;;;5052969;28;20496;-74
2022/07/29 00:48:09;;;;;;;3.65;0.70;;;11.00;99.90;;;;;;5052131;28;20017;-74
2022/07/29 00:50:37;;;;;;;2.13;0.70;;;11.00;99.90;;;;;;5056464;28;20025;-75
2022/07/29 00:53:08;;;;;;;2.15;1.33;;;11.00;99.90;;;;;;5054908;28;20033;-75
2022/07/29 00:55:36;;;;;;;1.88;0.85;;;11.10;99.90;;;;;;5052589;28;20115;-74
2022/07/29 00:58:04;;;;;;;2.28;0.95;;;11.10;99.90;;;;;;5052437;28;20021;-74
2022/07/29 01:00:31;;;;;;;2.45;1.00;;;11.20;99.90;;;;;;5052627;28;20029;-74
2022/07/29 01:02:59;;;;;;;4.40;1.17;;;11.20;99.90;;;;;;5052534;28;20098;-75
2022/07/29 01:05:29;;;;;;;2.55;0.77;;;11.20;99.90;;;;;;5052543;28;20020;-75
2022/07/29 01:07:57;;;;;;;5.63;1.40;;;11.30;99.90;;;;;;5066099;28;20066;-75
2022/07/29 01:10:24;;;;;;;1.70;0.68;;;11.30;99.90;;;;;;5052547;28;20032;-75
2022/07/29 01:12:58;;;;;;;3.05;0.90;;;11.30;99.90;;;;;;5050030;28;20364;-73
2022/07/29 01:15:26;;;;;;;4.15;1.15;;;11.40;99.90;;;;;;5050969;28;20041;-73
2022/07/29 01:18:08;;;;;;;2.30;0.70;;;11.50;99.90;;;;;;5048340;28;20386;-76
2022/07/29 01:20:38;;;;;;;2.15;0.85;;;11.50;99.90;;;;;;5048823;28;20024;-74
2022/07/29 01:23:26;;;;;;;4.07;1.10;;;11.60;99.90;;;;;;5050982;28;20462;-74
2022/07/29 01:26:30;;;;;;;2.33;0.80;;;11.60;99.90;;;;;;5048605;28;20043;-74
2022/07/29 01:29:13;;;;;;;3.78;1.00;;;11.70;99.90;;;;;;5049090;28;20031;-74
2022/07/29 01:31:48;;;;;;;1.90;0.82;;;11.60;99.90;;;;;;5051266;28;20104;-76
2022/07/29 01:34:51;;;;;;;1.55;0.60;;;11.50;99.90;;;;;;5050228;28;20474;-74
2022/07/29 01:37:39;;;;;;;4.10;1.00;;;11.50;99.90;;;;;;5051048;28;20035;-74
2022/07/29 01:40:16;;;;;;;1.50;0.60;;;11.60;99.90;;;;;;5050127;28;20350;-75
2022/07/29 01:42:47;;;;;;;2.63;0.75;;;11.70;99.90;;;;;;5049508;28;20028;-74
2022/07/29 01:45:17;;;;;;;0.93;0.73;;;11.70;99.90;;;;;;5052159;28;20025;-75
2022/07/29 01:48:07;;;;;;;3.88;0.88;;;11.80;99.90;;;;;;5052267;28;20028;-75
2022/07/29 01:51:05;;;;;;;5.13;0.98;;;11.90;99.90;;;;;;5030870;28;20032;-74
2022/07/29 01:53:56;;;;;;;2.25;1.13;;;11.90;99.90;;;;;;5045130;28;20059;-74
2022/07/29 01:56:24;;;;;;;3.58;0.90;;;11.90;99.90;;;;;;5056098;28;20021;-74
2022/07/29 01:58:54;;;;;;;2.78;0.98;;;12.00;99.90;;;;;;5055517;28;20039;-74
2022/07/29 02:01:24;;;;;;;1.92;0.90;;;12.00;99.90;;;;;;5056081;28;20470;-75
2022/07/29 02:03:53;;;;;;;2.78;1.20;;;12.10;99.90;;;;;;5056030;28;20044;-75
2022/07/29 02:06:22;;;;;;;2.72;1.38;;;12.10;99.90;;;;;;5056345;28;20044;-76
2022/07/29 02:08:51;;;;;;;2.42;1.10;;;12.00;99.90;;;;;;5055200;28;20051;-74
2022/07/29 02:11:19;;;;;;;1.13;0.65;;;12.00;99.90;;;;;;5054022;28;20028;-75
2022/07/29 02:13:47;;;;;;;6.75;1.35;;;12.00;99.90;;;;;;5055708;28;20074;-74
2022/07/29 02:16:19;;;;;;;2.92;0.65;;;12.00;99.90;;;;;;5055322;28;20056;-75
2022/07/29 02:18:48;;;;;;;0.80;0.60;;;12.20;99.90;;;;;;5054824;28;20437;-75
2022/07/29 02:21:19;;;;;;;1.65;0.60;;;12.20;99.90;;;;;;5055681;28;20036;-76
2022/07/29 02:23:48;;;;;;;3.00;1.08;;;12.20;99.90;;;;;;5052817;28;20092;-76
2022/07/29 02:26:17;;;;;;;5.88;1.02;;;12.30;99.90;;;;;;5056018;28;20021;-76
2022/07/29 02:28:45;;;;;;;1.33;0.57;;;12.40;99.90;;;;;;5055187;28;20025;-76
2022/07/29 02:31:14;;;;;;;2.78;0.93;;;12.40;99.90;;;;;;5055677;28;20448;-76
2022/07/29 02:33:41;;;;;;;1.48;0.57;;;12.40;99.90;;;;;;5053255;28;20075;-76
2022/07/29 02:36:09;;;;;;;6.25;1.20;;;12.40;99.90;;;;;;5054491;28;20021;-76
2022/07/29 02:38:53;;;;;;;3.15;0.75;;;12.50;99.90;;;;;;5053775;28;20017;-76
2022/07/29 02:41:35;;;;;;;2.55;0.85;;;12.50;99.90;;;;;;5052344;28;20021;-75
2022/07/29 02:44:24;;;;;;;3.17;0.70;;;12.60;99.90;;;;;;5052714;28;20492;-76
2022/07/29 02:47:23;;;;;;;1.45;0.90;;;12.80;99.90;;;;;;5051129;28;20032;-73
2022/07/29 02:50:03;;;;;;;0.90;0.60;;;12.90;99.90;;;;;;5036841;28;20036;-74
2022/07/29 02:52:44;;;;;;;0.80;0.60;;;12.90;99.90;;;;;;5050831;28;20427;-73
2022/07/29 02:55:17;;;;;;;2.25;0.80;;;12.90;99.90;;;;;;5050654;28;20051;-75
2022/07/29 02:58:07;;;;;;;1.60;0.50;;;13.00;99.90;;;;;;5053241;28;20017;-75
2022/07/29 03:00:39;;;;;;;2.97;0.85;;;12.90;99.90;;;;;;5050936;28;20148;-74
2022/07/29 03:03:12;;;;;;;1.33;0.98;;;12.90;99.90;;;;;;5053623;28;20047;-75
2022/07/29 03:05:41;;;;;;;2.47;1.10;;;12.90;99.90;;;;;;5054394;28;20444;-75
2022/07/29 03:08:13;;;;;;;1.52;0.70;;;12.80;99.90;;;;;;5054110;28;20075;-75
2022/07/29 03:10:43;;;;;;;1.75;0.60;;;12.80;99.90;;;;;;5054878;28;20108;-74
2022/07/29 03:13:12;;;;;;;4.93;0.85;;;12.80;99.90;;;;;;5054858;28;20021;-76
2022/07/29 03:15:43;;;;;;;1.40;0.63;;;12.80;99.90;;;;;;5053337;28;20025;-74
2022/07/29 03:18:11;;;;;;;1.00;0.60;;;12.90;99.90;;;;;;5054098;28;20432;-75
2022/07/29 03:20:40;;;;;;;1.30;0.70;;;12.90;99.90;;;;;;5054703;28;20095;-76
2022/07/29 03:23:10;;;;;;;1.38;0.43;;;12.90;99.90;;;;;;5054177;28;20013;-74
2022/07/29 03:25:38;;;;;;;1.90;0.60;;;12.90;99.90;;;;;;5053994;28;20029;-76
2022/07/29 03:28:05;;;;;;;2.60;0.63;;;13.10;99.90;;;;;;5054339;28;20045;-76
2022/07/29 03:30:33;;;;;;;2.55;0.93;;;13.00;99.90;;;;;;5053337;28;20028;-75
2022/07/29 03:33:00;;;;;;;1.25;0.70;;;13.00;99.90;;;;;;5051049;28;20029;-75
2022/07/29 03:35:29;;;;;;;1.23;0.50;;;13.10;99.90;;;;;;5054444;28;20033;-75
2022/07/29 03:37:56;;;;;;;1.05;0.63;;;13.00;99.90;;;;;;5054220;28;20120;-75
2022/07/29 03:40:39;;;;;;;5.13;1.17;;;13.00;99.90;;;;;;5052098;28;20044;-74
2022/07/29 03:43:09;;;;;;;1.30;0.70;;;12.90;99.90;;;;;;5052118;28;20017;-75
2022/07/29 03:45:37;;;;;;;3.60;0.80;;;13.00;99.90;;;;;;5054206;28;20075;-74
2022/07/29 03:48:13;;;;;;;2.08;1.02;;;13.10;99.90;;;;;;5054367;28;20025;-75
2022/07/29 03:50:40;;;;;;;1.38;0.93;;;13.20;99.90;;;;;;5054846;28;20032;-75
2022/07/29 03:53:09;;;;;;;1.50;0.55;;;13.20;99.90;;;;;;5053684;28;20108;-75
2022/07/29 03:55:45;;;;;;;1.17;0.57;;;13.20;99.90;;;;;;5054100;28;20029;-74
2022/07/29 03:58:13;;;;;;;1.67;0.70;;;13.20;99.90;;;;;;5054260;28;20009;-75
2022/07/29 04:00:42;;;;;;;2.03;0.63;;;13.20;99.90;;;;;;5054104;28;20032;-75
2022/07/29 04:03:10;;;;;;;0.93;0.60;;;13.20;99.90;;;;;;5050905;28;20493;-74
2022/07/29 04:05:38;;;;;;;1.55;0.70;;;13.20;99.90;;;;;;5053922;28;20099;-75
2022/07/29 04:08:05;;;;;;;0.70;0.45;;;13.20;99.90;;;;;;5053515;28;20028;-76
2022/07/29 04:10:33;;;;;;;1.77;0.68;;;13.10;99.90;;;;;;5053451;28;20033;-76
2022/07/29 04:13:00;;;;;;;4.32;0.60;;;13.10;99.90;;;;;;5053283;28;20021;-75
2022/07/29 04:15:28;;;;;;;0.77;0.50;;;13.10;99.70;;;;;;5052555;28;20482;-76
2022/07/29 04:17:56;;;;;;;1.17;0.55;;;13.10;99.90;;;;;;5053670;28;20025;-76
2022/07/29 04:20:23;;;;;;;0.70;0.40;;;13.10;99.60;;;;;;5052867;28;20131;-76
2022/07/29 04:22:50;;;;;;;1.65;0.65;;;13.10;98.90;;;;;;5053461;28;20027;-76
2022/07/29 04:25:18;;;;;;;0.98;0.40;;;13.10;97.80;;;;;;5053448;28;20009;-75
2022/07/29 04:28:00;;;;;;;0.63;0.35;;;13.10;96.50;;;;;;5051736;28;20075;-75
2022/07/29 04:30:28;;;;;;;0.50;0.38;;;13.10;92.90;;;;;;5051138;28;20075;-75
2022/07/29 04:32:55;;;;;;;0.80;0.45;;;13.10;93.00;;;;;;5051837;28;20028;-75
2022/07/29 04:35:22;;;;;;;0.93;0.68;;;13.10;95.10;;;;;;5052644;28;20071;-75
2022/07/29 04:37:50;;;;;;;1.42;1.00;;;13.20;97.00;;;;;;5052509;28;20397;-75
2022/07/29 04:40:17;;;;;;;2.05;0.73;;;13.20;97.10;;;;;;5052720;28;20029;-75
2022/07/29 04:42:44;;;;;;;2.25;0.52;;;13.10;97.90;;;;;;5053054;28;20027;-75
2022/07/29 04:45:12;;;;;;;1.25;0.65;;;12.90;97.20;;;;;;5053277;28;20078;-75
2022/07/29 04:47:39;;;;;;;4.05;0.63;;;12.80;97.80;;;;;;5053617;28;20029;-74
2022/07/29 04:50:07;;;;;;;5.15;0.70;;;12.70;98.00;;;;;;5053195;28;20040;-75
2022/07/29 04:52:35;;;;;;;1.10;0.70;;;12.70;98.70;;;;;;5053120;28;20013;-75
2022/07/29 04:55:03;;;;;;;2.00;0.60;;;12.50;98.90;;;;;;5052911;28;20120;-75
2022/07/29 04:57:31;;;;;;;4.65;0.60;;;12.50;98.90;;;;;;5051523;28;20032;-75
2022/07/29 04:59:58;;;;;;;1.58;0.70;;;12.50;99.20;;;;;;5052913;28;20029;-74
2022/07/29 05:02:26;;;;;;;2.00;0.70;;;12.50;99.50;;;;;;5052622;28;20077;-75
2022/07/29 05:04:54;;;;;;;1.27;0.82;;;12.50;98.80;;;;;;5051906;28;20116;-75
2022/07/29 05:07:21;;;;;;;0.57;0.50;;;12.40;99.40;;;;;;5051334;28;20081;-75
2022/07/29 05:09:49;;;;;;;2.83;1.20;;;12.40;99.10;;;;;;5051656;28;20438;-75
2022/07/29 05:12:17;;;;;;;1.00;0.60;;;12.40;99.30;;;;;;5051838;28;20021;-75
2022/07/29 05:14:44;;;;;;;2.45;0.60;;;12.30;99.60;;;;;;5051656;28;20086;-76
2022/07/29 05:17:12;;;;;;;1.40;0.70;;;12.30;99.90;;;;;;5052231;28;20473;-75
2022/07/29 05:19:40;;;;;;;3.17;0.60;;;12.30;99.90;;;;;;5052452;28;20027;-75
2022/07/29 05:22:07;;;;;;;0.93;0.60;;;12.30;99.90;;;;;;5053291;28;20017;-75
2022/07/29 05:24:35;;;;;;;1.35;0.60;;;12.20;99.90;;;;;;5053376;28;20025;-75
2022/07/29 05:27:03;;;;;;;1.30;0.60;;;12.20;99.90;;;;;;5053428;28;20020;-75
2022/07/29 05:29:30;;;;;;;1.42;0.52;;;12.20;99.90;;;;;;5052789;28;20383;-75
2022/07/29 05:31:58;;;;;;;0.70;0.68;;;12.20;99.90;;;;;;5053383;28;20024;-75
2022/07/29 05:34:26;;;;;;;3.42;0.68;;;12.30;99.90;;;;;;5053022;28;20029;-75
2022/07/29 05:36:56;;;;;;;3.33;0.70;;;12.20;99.80;;;;;;5053507;28;20017;-75
2022/07/29 05:39:25;;;;;;;1.02;0.60;;;12.30;99.90;;;;;;5053333;28;20052;-75
2022/07/29 05:41:52;;;;;;;5.70;0.75;;;12.20;99.90;;;;;;5053236;28;20021;-75
2022/07/29 05:44:20;;;;;;;3.20;0.82;;;12.20;99.90;;;;;;5053037;28;20470;-72
2022/07/29 05:46:48;;;;;;;2.78;0.70;;;12.20;99.90;;;;;;5053293;28;20370;-73
2022/07/29 05:49:15;;;;;;;0.85;0.40;;;12.20;99.90;;;;;;5053263;28;20029;-73
2022/07/29 05:51:44;;;;;;;2.28;0.90;;;12.20;99.90;;;;;;5052953;28;20032;-74
2022/07/29 05:54:12;;;;;;;2.08;0.60;;;12.10;99.90;;;;;;5053074;28;20029;-73
2022/07/29 05:56:39;;;;;;;4.85;0.98;;;12.10;99.90;;;;;;5053062;28;20025;-73
2022/07/29 05:59:07;;;;;;;2.90;1.02;;;12.00;99.90;;;;;;5053003;28;20028;-74
2022/07/29 06:01:39;;;;;;;2.53;0.70;;;12.00;99.90;;;;;;5052885;28;20024;-74
2022/07/29 06:04:07;;;;;;;5.63;0.88;;;12.00;99.90;;;;;;5053195;28;20559;-73
2022/07/29 06:06:38;;;;;;;1.60;0.88;;;12.00;99.90;;;;;;5051609;28;20456;-72
2022/07/29 06:09:06;;;;;;;1.02;0.50;;;12.00;99.90;;;;;;5052911;28;20099;-74
2022/07/29 06:11:33;;;;;;;2.63;0.85;;;11.90;99.90;;;;;;5053000;28;20466;-74
2022/07/29 06:14:02;;;;;;;0.47;0.43;;;11.90;99.90;;;;;;5052581;28;20036;-74
2022/07/29 06:16:30;;;;;;;1.45;0.80;;;11.90;99.90;;;;;;5052915;28;20075;-74
2022/07/29 06:18:58;;;;;;;1.80;0.63;;;11.80;99.90;;;;;;5052886;28;20519;-73
2022/07/29 06:21:26;;;;;;;2.90;1.00;;;11.80;99.90;;;;;;5052852;28;20031;-73
2022/07/29 06:23:56;;;;;;;1.00;0.60;;;11.70;99.90;;;;;;5052787;28;20544;-74
2022/07/29 06:26:24;;;;;;;2.38;0.68;;;11.70;99.90;;;;;;5052788;28;20043;-74
2022/07/29 06:28:52;;;;;;;3.92;0.68;;;11.60;99.90;;;;;;5052785;28;20047;-74
2022/07/29 06:31:19;;;;;;;4.28;0.80;;;11.60;99.90;;;;;;5052770;28;20408;-74
2022/07/29 06:33:47;;;;;;;2.78;0.60;;;11.50;99.90;;;;;;5052523;28;20087;-74
2022/07/29 06:36:15;;;;;;;2.30;0.80;;;11.50;99.90;;;;;;5052735;28;20033;-74
2022/07/29 06:38:45;;;;;;;3.97;0.82;;;11.50;99.90;;;;;;5052776;28;20025;-74
2022/07/29 06:41:15;;;;;;;1.80;1.02;;;11.40;99.90;;;;;;5053246;28;20044;-74
2022/07/29 06:43:47;;;;;;;6.65;0.98;;;11.40;99.90;;;;;;5056163;28;20029;-75
2022/07/29 06:46:19;;;;;;;1.92;1.17;;;11.30;99.90;;;;;;5056412;28;20021;-75
2022/07/29 06:48:48;;;;;;;6.63;0.85;;;11.30;99.90;;;;;;5056235;28;20027;-74
2022/07/29 06:51:24;;;;;;;1.45;0.85;;;11.20;99.90;;;;;;5055942;28;20035;-74
2022/07/29 06:53:53;;;;;;;2.58;0.60;;;11.20;99.90;;;;;;5055851;28;20029;-74
2022/07/29 06:56:21;;;;;;;2.83;1.02;;;11.20;99.90;;;;;;5056004;28;20025;-74
2022/07/29 06:58:49;;;;;;;4.13;0.98;;;11.20;99.90;;;;;;5055943;28;20032;-74
2022/07/29 07:01:16;;;;;;;3.40;0.85;;;11.10;99.90;;;;;;5055506;28;20028;-75
2022/07/29 07:03:44;;;;;;;5.10;0.90;;;11.10;99.90;;;;;;5054186;28;20041;-75
2022/07/29 07:06:12;;;;;;;1.25;0.60;;;11.10;99.90;;;;;;5055703;28;20029;-74
2022/07/29 07:08:40;;;;;;;3.83;0.60;;;11.00;99.90;;;;;;5055649;28;20059;-75
2022/07/29 07:11:07;;;;;;;8.65;1.00;;;11.00;99.90;;;;;;5055655;28;20052;-74
2022/07/29 07:13:35;;;;;;;4.90;1.17;;;10.90;99.90;;;;;;5054978;28;20035;-74
2022/07/29 07:16:04;;;;;;;2.35;0.90;;;10.90;99.90;;;;;;5055595;28;20028;-75
2022/07/29 07:18:32;;;;;;;2.38;0.88;;;10.80;99.90;;;;;;5055658;28;20025;-74
2022/07/29 07:20:59;;;;;;;2.65;0.80;;;10.80;99.90;;;;;;5055834;28;20474;-76
2022/07/29 07:23:27;;;;;;;5.18;1.05;;;10.80;99.90;;;;;;5055470;28;20108;-75
2022/07/29 07:25:55;;;;;;;4.18;1.10;;;10.80;99.90;;;;;;5055285;28;20025;-74
2022/07/29 07:28:23;;;;;;;2.80;1.45;;;10.70;99.90;;;;;;5055435;28;20478;-75
2022/07/29 07:30:50;;;;;;;5.45;1.10;;;10.70;99.90;;;;;;5055433;28;20059;-75
2022/07/29 07:33:18;;;;;;;6.03;1.33;;;10.60;99.90;;;;;;5055125;28;20365;-73
2022/07/29 07:35:46;;;;;;;5.40;1.42;;;10.60;99.90;;;;;;5055287;28;20112;-71
2022/07/29 07:38:14;;;;;;;5.10;1.25;;;10.60;99.90;;;;;;5056622;28;20021;-73
2022/07/29 07:40:42;;;;;;;7.68;1.98;;;10.50;99.90;;;;;;5055653;28;20032;-73
2022/07/29 07:43:10;;;;;;;5.60;1.50;;;10.50;99.90;;;;;;5054072;28;20020;-73
2022/07/29 07:45:39;;;;;;;5.07;1.38;;;10.50;99.90;;;;;;5054460;28;20032;-75
2022/07/29 07:48:09;;;;;;;3.08;1.60;;;10.50;99.90;;;;;;5054718;28;20104;-72
2022/07/29 07:50:38;;;;;;;1.70;1.02;;;10.50;99.90;;;;;;5040678;28;20029;-73
2022/07/29 07:53:05;;;;;;;2.67;1.30;;;10.50;99.90;;;;;;5040518;28;20100;-71
2022/07/29 07:55:33;;;;;;;4.75;1.65;;;10.40;99.90;;;;;;5035412;28;20039;-73
2022/07/29 07:58:01;;;;;;;3.15;1.33;;;10.40;99.90;;;;;;5042627;28;20028;-72
2022/07/29 08:00:29;;;;;;;5.70;1.40;;;10.40;99.90;;;;;;5054712;28;20028;-72
2022/07/29 08:02:56;;;;;;;4.20;1.52;;;10.40;99.90;;;;;;5054268;28;20051;-72
2022/07/29 08:05:24;;;;;;;3.15;1.10;;;10.40;99.90;;;;;;5054207;28;20443;-71
2022/07/29 08:07:52;;;;;;;2.35;1.38;;;10.40;99.90;;;;;;5054403;28;20035;-72
2022/07/29 08:13:07;;;;;;;4.05;1.50;;;10.30;99.90;;;;;;5034725;28;20560;-71
2022/07/29 08:15:35;;;;;;;2.95;1.20;;;10.30;99.90;;;;;;5034388;28;20032;-72
2022/07/29 08:18:05;;;;;;;6.50;1.48;;;10.30;99.90;;;;;;5035509;28;20474;-71
2022/07/29 08:20:35;;;;;;;4.25;1.48;;;10.30;99.90;;;;;;5037062;28;20029;-73
2022/07/29 08:23:04;;;;;;;2.80;1.55;;;10.20;99.90;;;;;;5034034;28;20497;-73
2022/07/29 08:25:32;;;;;;;8.05;1.67;;;10.20;99.90;;;;;;5035961;28;20056;-72
2022/07/29 08:28:00;;;;;;;3.30;1.30;;;10.10;99.90;;;;;;5034304;28;20040;-71
2022/07/29 08:30:28;;;;;;;4.68;1.70;;;10.10;99.90;;;;;;5034859;28;20018;-73
2022/07/29 08:32:56;;;;;;;4.45;1.95;;;10.00;99.90;;;;;;5044009;28;20048;-72
2022/07/29 08:35:25;;;;;;;5.80;1.60;;;10.00;99.90;;;;;;5052791;28;20025;-73
2022/07/29 08:37:53;;;;;;;3.70;1.40;;;10.00;99.90;;;;;;5052851;28;20021;-74
2022/07/29 08:40:23;;;;;;;4.55;1.20;;;10.00;99.90;;;;;;5052888;28;20045;-73
2022/07/29 08:42:51;;;;;;;3.45;1.65;;;10.00;99.90;;;;;;5052051;28;20453;-72
2022/07/29 08:45:19;;;;;;;3.42;1.38;;;9.90;99.90;;;;;;5052086;28;20028;-74
2022/07/29 08:47:46;;;;;;;5.05;1.00;;;9.90;99.90;;;;;;5050470;28;20021;-74
2022/07/29 08:50:14;;;;;;;2.53;1.25;;;9.90;99.90;;;;;;5051804;28;20470;-73
2022/07/29 08:52:43;;;;;;;4.82;1.70;;;9.90;99.90;;;;;;5051805;28;20104;-72
2022/07/29 08:55:12;;;;;;;4.75;1.63;;;9.90;99.90;;;;;;5053059;28;20108;-72
2022/07/29 08:57:40;;;;;;;3.33;1.40;;;9.90;99.90;;;;;;5053254;28;20024;-73
2022/07/29 09:00:10;;;;;;;5.03;1.45;;;9.90;99.90;;;;;;5052659;28;20374;-72
2022/07/29 09:02:44;;;;;;;3.55;1.48;;;9.90;99.90;;;;;;5032718;28;20470;-72
2022/07/29 09:05:11;;;;;;;5.05;1.65;;;9.90;99.90;;;;;;5035689;28;20052;-72
2022/07/29 09:07:42;;;;;;;3.33;1.60;;;10.00;99.90;;;;;;5033841;28;20040;-73
2022/07/29 09:10:11;;;;;;;3.10;1.88;;;9.90;99.90;;;;;;5034214;28;20024;-72
2022/07/29 09:12:39;;;;;;;3.03;1.13;;;9.90;99.90;;;;;;5033330;28;20026;-73
2022/07/29 09:15:07;;;;;;;3.90;1.30;;;9.90;99.90;;;;;;5033572;28;20116;-72
2022/07/29 09:17:49;;;;;;;3.50;1.67;;;9.90;99.90;;;;;;5035540;28;20033;-73
2022/07/29 09:20:25;;;;;;;5.88;1.77;;;9.80;99.90;;;;;;5043147;28;20116;-72
2022/07/29 09:22:53;;;;;;;5.47;1.65;;;9.80;99.90;;;;;;5041299;28;20450;-73
2022/07/29 09:25:38;;;;;;;3.38;1.35;;;9.80;99.90;;;;;;5041477;28;20104;-72
2022/07/29 09:28:09;;;;;;;5.63;2.00;;;9.80;99.90;;;;;;5040712;28;20029;-74
2022/07/29 09:30:50;;;;;;;7.63;1.60;;;9.80;99.90;;;;;;5051967;28;20017;-72
2022/07/29 09:33:18;;;;;;;5.65;1.77;;;9.80;99.90;;;;;;5052310;28;20454;-72
2022/07/29 09:35:46;;;;;;;4.97;2.03;;;9.70;99.90;;;;;;5045415;28;20444;-72
2022/07/29 09:38:14;;;;;;;2.67;1.50;;;9.70;99.90;;;;;;5052160;28;20021;-71
2022/07/29 09:40:55;;;;;;;3.03;1.58;;;9.60;99.90;;;;;;5051735;28;20029;-74
2022/07/29 09:43:23;;;;;;;3.05;1.42;;;9.50;99.90;;;;;;5052057;28;20044;-71
2022/07/29 09:45:51;;;;;;;3.00;1.40;;;9.50;99.90;;;;;;5048948;28;20013;-71
2022/07/29 09:48:21;;;;;;;3.92;2.30;;;9.40;99.90;;;;;;5050998;28;20347;-71
2022/07/29 09:50:50;;;;;;;3.53;1.98;;;9.30;99.90;;;;;;5050939;28;20020;-71
2022/07/29 09:53:37;;;;;;;3.75;2.03;;;9.20;99.90;;;;;;5044503;28;20044;-72
2022/07/29 09:56:10;;;;;;;7.43;2.53;;;9.10;99.90;;;;;;5050804;28;20024;-74
2022/07/29 09:58:38;;;;;;;5.25;2.20;;;9.10;99.90;;;;;;5048615;28;20017;-74
2022/07/29 10:01:06;;;;;;;8.02;2.78;;;9.10;99.90;;;;;;5050425;28;20025;-74
2022/07/29 10:03:50;;;;;;;5.18;2.47;;;9.10;99.90;;;;;;5050428;28;20042;-73
2022/07/29 10:06:18;;;;;;;5.15;2.70;;;9.00;99.90;;;;;;5051379;28;20492;-74
2022/07/29 10:08:46;;;;;;;7.72;3.10;;;9.00;99.90;;;;;;5041947;28;20398;-74
2022/07/29 10:11:18;;;;;;;4.85;2.53;;;9.00;99.90;;;;;;5049604;28;20014;-71
2022/07/29 10:13:48;;;;;;;8.65;2.75;;;8.90;99.90;;;;;;5033899;28;20029;-74
2022/07/29 10:16:17;;;;;;;15.65;2.92;;;8.90;99.90;;;;;;5037456;28;20065;-71
2022/07/29 10:18:46;;;;;;;6.35;2.60;;;8.90;99.90;;;;;;5042626;28;20024;-73
2022/07/29 10:21:14;;;;;;;4.25;2.45;;;8.80;99.90;;;;;;5055074;28;20020;-74
2022/07/29 10:23:42;;;;;;;10.95;2.80;;;8.80;99.90;;;;;;5055135;28;20017;-72
2022/07/29 10:26:11;;;;;;;7.43;3.08;;;8.80;99.90;;;;;;5054420;28;20029;-72
2022/07/29 10:28:39;;;;;;;5.53;2.97;;;8.70;99.90;;;;;;5053378;28;20024;-71
2022/07/29 10:31:11;;;;;;;4.47;3.08;;;8.70;99.90;;;;;;5054150;28;20013;-74
2022/07/29 10:34:03;;;;;;;12.77;4.05;;;8.70;99.90;;;;;;5051917;28;20079;-71
2022/07/29 10:36:54;;;;;;;5.38;3.33;;;8.70;99.90;;;;;;5053624;28;20112;-71
2022/07/29 10:39:52;;;;;;;5.80;3.28;;;8.60;99.90;;;;;;5056145;28;20017;-75
2022/07/29 10:42:24;;;;;;;6.57;3.17;;;8.60;99.90;;;;;;5047171;28;20072;-71
2022/07/29 10:44:52;;;;;;;8.57;3.65;;;8.60;99.90;;;;;;5035598;28;20938;-72
2022/07/29 10:47:27;;;;;;;6.70;2.80;;;8.60;99.90;;;;;;5037956;28;20033;-71
2022/07/29 10:50:03;;;;;;;6.78;3.05;;;8.50;99.90;;;;;;5039775;28;20022;-75
2022/07/29 10:52:53;;;;;;;6.97;2.92;;;8.50;99.90;;;;;;5037245;28;20024;-72
2022/07/29 10:55:44;;;;;;;4.28;2.45;;;8.40;99.90;;;;;;5036147;28;20037;-75
2022/07/29 10:58:16;;;;;;;4.72;2.33;;;8.40;99.90;;;;;;5039043;28;20021;-75
2022/07/29 11:00:46;;;;;;;9.98;3.75;;;8.40;99.90;;;;;;5035852;28;20075;-74
2022/07/29 11:03:42;;;;;;;5.55;3.20;;;8.40;99.90;;;;;;5035158;28;20045;-74
2022/07/29 11:06:09;;;;;;;9.20;3.25;;;8.40;99.90;;;;;;5036953;28;20459;-72
2022/07/29 11:08:37;;;;;;;7.03;3.00;;;8.40;99.90;;;;;;5036964;28;20052;-72
2022/07/29 11:11:20;;;;;;;7.97;3.45;;;8.40;99.90;;;;;;5036534;28;20022;-71
2022/07/29 11:13:50;;;;;;;7.80;3.38;;;8.30;99.90;;;;;;5049938;28;20025;-72
2022/07/29 11:16:21;;;;;;;11.88;3.83;;;8.30;99.90;;;;;;5035657;28;20478;-72
2022/07/29 11:19:14;;;;;;;6.60;3.00;;;8.30;99.90;;;;;;5035051;28;20014;-72
2022/07/29 11:21:52;;;;;;;4.70;2.47;;;8.30;99.90;;;;;;5036485;28;20010;-74
2022/07/29 11:24:30;;;;;;;9.30;2.92;;;8.30;99.90;;;;;;5036781;28;20078;-71
2022/07/29 11:27:12;;;;;;;6.13;2.63;;;8.30;99.90;;;;;;5037360;28;20028;-74
2022/07/29 11:29:49;;;;;;;7.38;2.63;;;8.20;99.90;;;;;;5035942;28;20121;-71
2022/07/29 11:32:19;;;;;;;6.25;2.90;;;8.20;99.90;;;;;;5037267;28;20032;-71
2022/07/29 11:34:48;;;;;;;8.32;2.83;;;8.20;99.90;;;;;;5034526;28;20029;-72
2022/07/29 11:37:18;;;;;;;6.10;3.00;;;8.20;99.90;;;;;;5037339;28;20017;-71
2022/07/29 11:39:56;;;;;;;4.28;2.72;;;8.20;99.90;;;;;;5042689;28;20040;-71
2022/07/29 11:42:26;;;;;;;6.03;2.90;;;8.10;99.90;;;;;;5036531;28;20088;-74
2022/07/29 11:45:08;;;;;;;3.80;2.38;;;8.10;99.90;;;;;;5037541;28;20021;-73
2022/07/29 11:47:39;;;;;;;5.47;2.90;;;8.10;99.90;;;;;;5035755;28;20013;-71
2022/07/29 11:50:12;;;;;;;7.07;2.67;;;8.10;99.90;;;;;;5037539;28;20026;-71
2022/07/29 11:52:47;;;;;;;6.35;2.67;;;8.00;99.90;;;;;;5037015;28;20425;-70
2022/07/29 11:55:18;;;;;;;5.30;2.53;;;8.00;99.90;;;;;;5035563;28;20029;-74
2022/07/29 11:57:52;;;;;;;4.70;2.92;;;8.00;99.90;;;;;;5035962;28;20022;-72
2022/07/29 12:00:27;;;;;;;5.55;2.65;;;8.00;99.90;;;;;;5034759;28;20413;-75
2022/07/29 12:02:56;;;;;;;6.97;2.67;;;8.00;99.90;;;;;;5032305;28;20045;-75
2022/07/29 12:05:37;;;;;;;3.90;2.28;;;8.00;99.90;;;;;;5036571;28;20470;-75
2022/07/29 12:08:18;;;;;;;7.30;2.40;;;8.00;99.90;;;;;;5037699;28;20474;-75
2022/07/29 12:10:48;;;;;;;5.93;2.92;;;7.90;99.90;;;;;;5035564;28;20100;-73
2022/07/29 12:13:17;;;;;;;3.97;2.33;;;7.90;99.90;;;;;;5036098;28;20033;-72
2022/07/29 12:15:54;;;;;;;10.80;2.63;;;7.90;99.90;;;;;;5034454;28;20399;-75
2022/07/29 12:18:22;;;;;;;5.57;2.80;;;7.90;99.90;;;;;;5034351;28;20022;-75
2022/07/29 12:21:04;;;;;;;8.48;3.20;;;7.80;99.90;;;;;;5036440;28;20025;-75
2022/07/29 12:23:32;;;;;;;6.00;2.50;;;7.80;99.90;;;;;;5046086;28;20021;-76
2022/07/29 12:26:00;;;;;;;7.05;3.70;;;7.80;99.90;;;;;;5053020;28;20032;-75
2022/07/29 12:28:29;;;;;;;6.57;2.85;;;7.70;99.90;;;;;;5053139;28;20418;-75
2022/07/29 12:30:57;;;;;;;5.03;2.65;;;7.70;99.90;;;;;;5052832;28;20094;-75
2022/07/29 12:33:30;;;;;;;4.25;2.55;;;7.70;99.90;;;;;;5052915;28;20026;-73
2022/07/29 12:36:01;;;;;;;7.93;2.70;;;7.70;99.90;;;;;;5052976;28;20115;-76
2022/07/29 12:38:29;;;;;;;8.05;2.88;;;7.60;99.90;;;;;;5052777;28;20043;-74
2022/07/29 12:40:57;;;;;;;8.70;2.80;;;7.60;99.90;;;;;;5052965;28;20017;-72
2022/07/29 12:43:26;;;;;;;7.75;3.10;;;7.60;99.90;;;;;;5052742;28;20016;-72
2022/07/29 12:45:59;;;;;;;6.78;2.45;;;7.60;99.90;;;;;;5052801;28;20017;-76
2022/07/29 12:48:41;;;;;;;6.57;3.40;;;7.50;99.90;;;;;;5052809;28;20020;-71
2022/07/29 12:51:11;;;;;;;10.23;3.30;;;7.50;99.90;;;;;;5052656;28;20017;-75
2022/07/29 12:53:39;;;;;;;10.25;2.85;;;7.50;99.90;;;;;;5052615;28;20044;-72
2022/07/29 12:56:15;;;;;;;6.38;2.88;;;7.50;99.90;;;;;;5052241;28;20053;-75
2022/07/29 12:58:44;;;;;;;4.97;2.13;;;7.40;99.90;;;;;;5052653;28;20102;-72
2022/07/29 13:01:15;;;;;;;5.55;2.95;;;7.40;99.90;;;;;;5052605;28;20021;-75
2022/07/29 13:03:56;;;;;;;3.25;2.08;;;7.40;99.90;;;;;;5053941;28;20490;-72
2022/07/29 13:06:45;;;;;;;11.23;2.97;;;7.40;99.90;;;;;;5051952;28;20020;-72
2022/07/29 13:09:15;;;;;;;4.20;2.03;;;7.40;99.90;;;;;;5052468;28;20608;-74
2022/07/29 13:11:52;;;;;;;5.40;2.88;;;7.40;99.90;;;;;;5052443;28;20021;-75
2022/07/29 13:14:39;;;;;;;8.05;2.97;;;7.40;99.90;;;;;;5052344;28;20035;-72